Sadah Silver — V7NT8 — position and weather

sailwx.info

Track history (hours):
 
Tides and Currents Weather Stations Pressure Air Temp Water Temp Dewpoint Dewpoint Depression Visibility Wind Speed Wind Dir Waves Ship Positions

Sadah Silver

Last reported at 2018-Jun-23 21:00 UTC. Time now 2018-Jun-23 21:24 UTC.
Position N 53°31' W 003°14'.

Length 183 m; draft 7.9 m.

Type: Ship (hazmat cat B). MMSI: 538006506.

Date/timePositionNaut miles runAvg speedWind from/ knotsBaromVisibWave heightAir tempDewpointWater temp
2018-Jun-23 21:00N 53°31' W 003°14'510.3
2018-Jun-23 20:31N 53°30' W 003°06'5 9.5
2018-Jun-23 20:00N 53°26' W 003°01'0 0.4
2018-Jun-23 19:30N 53°26' W 003°01'0 0.2
2018-Jun-23 19:01N 53°27' W 003°01'0 0.6
2018-Jun-23 18:30N 53°26' W 003°00'0 0.3
2018-Jun-23 18:00N 53°26' W 003°00'0 0.2
2018-Jun-23 17:20N 53°26' W 002°60'0 0.0
2018-Jun-23 16:56N 53°26' W 002°60'0 0.0
2018-Jun-23 16:26N 53°26' W 002°60'0 0.0
2018-Jun-23 15:56N 53°26' W 002°60'0 0.0
2018-Jun-23 15:26N 53°26' W 002°60'0 0.0
2018-Jun-23 14:59N 53°26' W 002°60'0 0.0
2018-Jun-23 14:26N 53°26' W 002°60'0 0.0
2018-Jun-23 13:50N 53°26' W 002°60'0 0.0
2018-Jun-23 13:26N 53°26' W 002°60'0 0.0
2018-Jun-23 12:56N 53°26' W 002°60'0 0.0
2018-Jun-23 12:20N 53°26' W 002°60'0 0.0
2018-Jun-23 11:56N 53°26' W 002°60'0 0.0
2018-Jun-23 11:26N 53°26' W 002°60'0 0.0
2018-Jun-23 10:56N 53°26' W 002°60'0 0.0
2018-Jun-23 09:44N 53°26' W 002°60'0 0.0
2018-Jun-23 09:26N 53°26' W 002°60'0 0.0
2018-Jun-23 08:53N 53°26' W 002°60'0 0.0
2018-Jun-23 08:26N 53°26' W 002°60'0 0.0
2018-Jun-23 07:56N 53°26' W 002°60'0 0.0
2018-Jun-23 07:26N 53°26' W 002°60'0 0.0
2018-Jun-23 06:59N 53°26' W 002°60'0 0.0
2018-Jun-23 06:29N 53°26' W 002°60'0 0.0
2018-Jun-23 05:56N 53°26' W 002°60'0 0.0
2018-Jun-23 05:26N 53°26' W 003°00'0 0.0
2018-Jun-23 04:47N 53°26' W 002°60'0 0.0
2018-Jun-23 04:23N 53°26' W 002°60'0 0.0
2018-Jun-23 03:47N 53°26' W 002°60'0 0.0
2018-Jun-23 03:29N 53°26' W 003°00'0 0.0
2018-Jun-23 02:56N 53°26' W 002°60'0 0.0
2018-Jun-23 02:26N 53°26' W 002°60'0 0.0
2018-Jun-23 01:56N 53°26' W 002°60'0 0.0
2018-Jun-23 01:29N 53°26' W 003°00'0 0.0
2018-Jun-23 00:44N 53°26' W 002°60'0 0.0
2018-Jun-23 00:26N 53°26' W 002°60'0 0.0
2018-Jun-22 23:56N 53°26' W 002°60'0 0.0
2018-Jun-22 23:26N 53°26' W 002°60'0 0.0
2018-Jun-22 22:56N 53°26' W 002°60'0 0.0
2018-Jun-22 22:20N 53°26' W 002°60'0 0.0
2018-Jun-22 21:56N 53°26' W 002°60'0 0.0
2018-Jun-22 21:29N 53°26' W 002°60'0 0.0
2018-Jun-22 20:56N 53°26' W 002°60'0 0.0
2018-Jun-22 20:29N 53°26' W 002°60'0 0.0
2018-Jun-22 19:59N 53°26' W 002°60'0 0.0
2018-Jun-22 19:23N 53°26' W 002°60'0 0.0
2018-Jun-22 18:59N 53°26' W 002°60'0 0.0
2018-Jun-22 18:29N 53°26' W 002°60'0 0.0
2018-Jun-22 17:56N 53°26' W 002°60'0 0.0
2018-Jun-22 17:29N 53°26' W 002°60'0 0.0
2018-Jun-22 16:56N 53°26' W 002°60'0 0.0
2018-Jun-22 16:26N 53°26' W 002°60'0 0.0
2018-Jun-22 15:59N 53°26' W 002°60'0 0.0
2018-Jun-22 15:29N 53°26' W 002°60'0 0.0
2018-Jun-22 14:56N 53°26' W 002°60'0 0.0
2018-Jun-22 14:17N 53°26' W 002°60'0 0.0
2018-Jun-22 13:56N 53°26' W 002°60'0 0.0
2018-Jun-22 13:26N 53°26' W 002°60'0 0.0
2018-Jun-22 12:56N 53°26' W 002°60'0 0.0
2018-Jun-22 12:26N 53°26' W 002°60'0 0.0
2018-Jun-22 11:59N 53°26' W 002°60'0 0.0
2018-Jun-22 11:26N 53°26' W 002°60'0 0.0
2018-Jun-22 10:50N 53°26' W 002°60'0 0.0
2018-Jun-22 10:26N 53°26' W 002°60'0 0.0
2018-Jun-22 09:56N 53°26' W 002°60'0 0.0
2018-Jun-22 09:29N 53°26' W 002°60'0 0.0
2018-Jun-22 08:59N 53°26' W 002°60'0 0.0
2018-Jun-22 08:30N 53°26' W 002°60'0 0.0
2018-Jun-22 08:00N 53°26' W 002°60'0 0.0
2018-Jun-22 07:30N 53°26' W 002°60'0 0.0
2018-Jun-22 07:00N 53°26' W 002°60'0 0.0
2018-Jun-22 06:30N 53°26' W 003°00'0 0.6
2018-Jun-22 06:00N 53°26' W 003°00'0 0.3
2018-Jun-22 05:29N 53°26' W 003°01'0 0.0
2018-Jun-22 05:00N 53°26' W 003°01'0 0.8
2018-Jun-22 04:30N 53°26' W 003°01'3 6.9
2018-Jun-22 04:00N 53°29' W 003°05'4 8.8
2018-Jun-22 03:30N 53°32' W 003°10'612.1
2018-Jun-22 03:00N 53°31' W 003°21'3 7.0
2018-Jun-22 02:30N 53°31' W 003°27'3 6.2
2018-Jun-22 02:00N 53°31' W 003°32'4 7.4
2018-Jun-22 01:30N 53°31' W 003°38'4 7.9
2018-Jun-22 01:00N 53°31' W 003°45'5 9.9
2018-Jun-22 00:30N 53°33' W 003°52'612.1
2018-Jun-22 00:00N 53°39' W 003°57'612.0
2018-Jun-21 23:30N 53°44' W 004°01'76 7.6
2018-Jun-21 13:30N 52°42' W 005°16'18311.6
2018-Jun-20 21:45N 49°43' W 006°17'5812.4
2018-Jun-20 17:02N 49°52' W 004°48'013.6
2018-Jun-20 17:01N 49°52' W 004°47'1113.9
2018-Jun-20 16:13N 49°53' W 004°30'413.9
2018-Jun-20 15:57N 49°54' W 004°24'613.9
2018-Jun-20 15:30N 49°55' W 004°15'913.7
2018-Jun-20 14:52N 49°56' W 004°02'713.6
2018-Jun-20 14:21N 49°57' W 003°51'513.2
2018-Jun-20 14:00N 49°57' W 003°44'612.9
2018-Jun-20 13:30N 49°58' W 003°34'612.7
2018-Jun-20 13:00N 49°60' W 003°24'612.5
2018-Jun-20 12:30N 50°01' W 003°15'612.4
2018-Jun-20 12:00N 50°02' W 003°05'612.6
2018-Jun-20 11:30N 50°02' W 002°55'612.5
2018-Jun-20 11:00N 50°02' W 002°46'613.0
2018-Jun-20 10:30N 50°04' W 002°36'2014.1
2018-Jun-20 09:05N 50°10' W 002°06'315.1
2018-Jun-20 08:53N 50°11' W 002°02'715.7
2018-Jun-20 08:25N 50°12' W 001°51'716.0
2018-Jun-20 08:00N 50°14' W 001°40'816.2
2018-Jun-20 07:30N 50°16' W 001°28'816.3
2018-Jun-20 07:00N 50°18' W 001°16'1016.7
2018-Jun-20 06:25N 50°21' W 001°01'716.4
2018-Jun-20 06:00N 50°23' W 000°51'815.2
2018-Jun-20 05:30N 50°25' W 000°40'714.5
2018-Jun-20 05:00N 50°27' W 000°29'714.3
2018-Jun-20 04:30N 50°29' W 000°18'713.5
2018-Jun-20 04:01N 50°31' W 000°08'613.0
2018-Jun-20 03:30N 50°31' E 000°02'612.7
2018-Jun-20 03:00N 50°33' E 000°12'612.2
2018-Jun-20 02:31N 50°34' E 000°22'611.8
2018-Jun-20 02:00N 50°36' E 000°31'611.8
2018-Jun-20 01:31N 50°39' E 000°39'612.3
2018-Jun-20 01:01N 50°42' E 000°46'713.1
2018-Jun-20 00:31N 50°46' E 000°55'714.0
2018-Jun-20 00:00N 50°50' E 001°04'714.6
2018-Jun-19 23:30N 50°55' E 001°13'815.2
2018-Jun-19 23:00N 51°01' E 001°20'815.2
2018-Jun-19 22:30N 51°05' E 001°30'714.5
2018-Jun-19 22:00N 51°10' E 001°39'713.7
2018-Jun-19 21:30N 51°15' E 001°47'713.1
2018-Jun-19 21:00N 51°21' E 001°51'612.4
2018-Jun-19 20:30N 51°26' E 001°56'612.0
2018-Jun-19 20:00N 51°31' E 002°02'611.8
2018-Jun-19 19:30N 51°35' E 002°09'611.9
2018-Jun-19 19:00N 51°39' E 002°15'611.8
2018-Jun-19 18:30N 51°44' E 002°22'611.7
2018-Jun-19 17:59N 51°48' E 002°28'611.9
2018-Jun-19 17:30N 51°53' E 002°35'612.2
2018-Jun-19 17:00N 51°57' E 002°41'2012.8
2018-Jun-19 15:28N 52°03' E 003°12'714.1
2018-Jun-19 15:00N 52°03' E 003°22'714.2
2018-Jun-19 14:31N 52°03' E 003°34'714.0
2018-Jun-19 14:00N 52°03' E 003°45'612.4
2018-Jun-19 13:30N 52°03' E 003°55'5 9.5
2018-Jun-19 13:00N 52°00' E 004°02'611.6
2018-Jun-19 12:30N 51°57' E 004°10'611.3
2018-Jun-19 12:00N 51°54' E 004°17'1 1.9
2018-Jun-19 11:30N 51°53' E 004°17'0 0.1
2018-Jun-19 08:50N 51°53' E 004°17'0 0.0
2018-Jun-19 08:29N 51°53' E 004°17'0 0.0
2018-Jun-19 07:02N 51°53' E 004°17'0 0.0
2018-Jun-19 05:56N 51°53' E 004°17'0 0.0
2018-Jun-19 05:08N 51°53' E 004°17'0 0.0
2018-Jun-19 04:50N 51°53' E 004°17'0 0.0
2018-Jun-19 03:50N 51°53' E 004°17'0 0.0
2018-Jun-19 03:14N 51°53' E 004°17'0 0.0
2018-Jun-19 02:56N 51°53' E 004°17'0 0.0
2018-Jun-19 01:50N 51°53' E 004°17'0 0.0
2018-Jun-19 00:56N 51°53' E 004°17'0 0.0
2018-Jun-18 21:50N 51°53' E 004°17'0 0.0
2018-Jun-18 09:32N 51°53' E 004°17'0 0.0
2018-Jun-18 08:29N 51°53' E 004°17'0 0.0
2018-Jun-18 07:50N 51°53' E 004°17'0 0.0
2018-Jun-18 07:20N 51°53' E 004°17'0 0.0
2018-Jun-18 06:53N 51°53' E 004°17'0 0.0
2018-Jun-18 06:14N 51°53' E 004°17'0 0.0
2018-Jun-18 05:56N 51°53' E 004°17'0 0.0
2018-Jun-18 05:29N 51°53' E 004°17'0 0.0
2018-Jun-18 04:53N 51°53' E 004°17'0 0.0
2018-Jun-18 04:23N 51°53' E 004°17'0 0.0
2018-Jun-18 03:53N 51°53' E 004°17'0 0.0
2018-Jun-18 03:14N 51°53' E 004°17'0 0.0
2018-Jun-18 02:50N 51°53' E 004°17'0 0.0
2018-Jun-18 02:26N 51°53' E 004°17'0 0.0
2018-Jun-18 01:14N 51°53' E 004°17'0 0.0
2018-Jun-18 00:38N 51°53' E 004°17'0 0.0
2018-Jun-18 00:29N 51°53' E 004°17'0 0.0
2018-Jun-17 23:41N 51°53' E 004°17'0 0.0
2018-Jun-17 23:29N 51°53' E 004°17'0 0.0
2018-Jun-17 22:59N 51°53' E 004°17'0 0.0
2018-Jun-17 22:29N 51°53' E 004°17'0 0.0
2018-Jun-17 19:38N 51°53' E 004°17'0 0.0
2018-Jun-17 16:11N 51°53' E 004°17'0 0.0
2018-Jun-17 15:41N 51°53' E 004°17'0 0.0
2018-Jun-17 14:05N 51°53' E 004°17'0 0.0
2018-Jun-17 13:41N 51°53' E 004°17'0 0.0
2018-Jun-17 07:56N 51°53' E 004°17'0 0.0
2018-Jun-17 07:26N 51°53' E 004°17'0 0.0
2018-Jun-17 06:59N 51°53' E 004°17'0 0.0
2018-Jun-17 06:29N 51°53' E 004°17'0 0.0
2018-Jun-17 05:47N 51°53' E 004°17'0 0.0
2018-Jun-17 04:56N 51°53' E 004°17'0 0.0
2018-Jun-17 04:05N 51°53' E 004°17'0 0.0
2018-Jun-17 03:53N 51°53' E 004°17'0 0.0
2018-Jun-17 03:29N 51°53' E 004°17'0 0.0
2018-Jun-17 02:59N 51°53' E 004°17'0 0.0
2018-Jun-17 02:26N 51°53' E 004°17'0 0.0
2018-Jun-17 01:53N 51°53' E 004°17'0 0.0
2018-Jun-17 01:14N 51°53' E 004°17'0 0.0
2018-Jun-17 00:56N 51°53' E 004°17'0 0.0
2018-Jun-17 00:29N 51°53' E 004°17'0 0.0
2018-Jun-16 23:56N 51°53' E 004°17'0 0.0
2018-Jun-16 23:23N 51°53' E 004°17'0 0.0
2018-Jun-16 22:32N 51°53' E 004°17'0 0.0
2018-Jun-16 22:26N 51°53' E 004°17'0 0.0
2018-Jun-16 21:54N 51°53' E 004°17'1 1.7
2018-Jun-16 21:30N 51°53' E 004°18'3 5.2
2018-Jun-16 21:00N 51°54' E 004°22'3 5.5
2018-Jun-16 20:30N 51°54' E 004°26'0 0.9
2018-Jun-16 20:00N 51°53' E 004°26'0 0.0
2018-Jun-16 19:30N 51°53' E 004°26'0 0.0
2018-Jun-16 18:54N 51°53' E 004°26'0 0.0
2018-Jun-16 18:27N 51°53' E 004°26'0 0.0
2018-Jun-16 18:00N 51°53' E 004°26'0 0.0
2018-Jun-16 17:30N 51°53' E 004°26'0 0.0
2018-Jun-16 16:57N 51°53' E 004°26'0 0.0
2018-Jun-16 16:30N 51°53' E 004°26'0 0.0
2018-Jun-16 16:00N 51°53' E 004°26'0 0.0
2018-Jun-16 15:27N 51°53' E 004°26'0 0.0
2018-Jun-16 14:57N 51°53' E 004°26'0 0.0
2018-Jun-16 14:30N 51°53' E 004°26'0 0.0
2018-Jun-16 14:00N 51°53' E 004°26'0 0.0
2018-Jun-16 13:30N 51°53' E 004°26'0 0.0
2018-Jun-16 13:00N 51°53' E 004°26'0 0.0
2018-Jun-16 12:30N 51°53' E 004°26'0 0.0
2018-Jun-16 12:00N 51°53' E 004°26'0 0.0
2018-Jun-16 11:30N 51°53' E 004°26'0 0.0
2018-Jun-16 10:57N 51°53' E 004°26'0 0.0
2018-Jun-16 10:30N 51°53' E 004°26'0 0.0
2018-Jun-16 10:00N 51°53' E 004°26'0 0.0
2018-Jun-16 09:30N 51°53' E 004°26'0 0.0
2018-Jun-16 09:00N 51°53' E 004°26'0 0.0
2018-Jun-16 08:30N 51°53' E 004°26'0 0.0
2018-Jun-16 08:00N 51°53' E 004°26'0 0.0
2018-Jun-16 07:30N 51°53' E 004°26'0 0.0
2018-Jun-16 07:00N 51°53' E 004°26'0 0.0
2018-Jun-16 06:27N 51°53' E 004°26'0 0.0
2018-Jun-16 06:00N 51°53' E 004°26'0 0.0
2018-Jun-16 05:27N 51°53' E 004°26'0 0.0
2018-Jun-16 05:00N 51°53' E 004°26'0 0.0
2018-Jun-16 04:30N 51°53' E 004°26'0 0.0
2018-Jun-16 03:57N 51°53' E 004°26'0 0.0
2018-Jun-16 03:30N 51°53' E 004°26'0 0.0
2018-Jun-16 03:00N 51°53' E 004°26'0 0.0
2018-Jun-16 02:27N 51°53' E 004°26'0 0.0
2018-Jun-16 02:00N 51°53' E 004°26'0 0.0
2018-Jun-16 01:30N 51°53' E 004°26'0 0.0
2018-Jun-16 01:00N 51°53' E 004°26'0 0.0
2018-Jun-16 00:30N 51°53' E 004°26'0 0.0
2018-Jun-16 00:00N 51°53' E 004°26'0 0.0
2018-Jun-15 23:30N 51°53' E 004°26'0 0.0
2018-Jun-15 22:57N 51°53' E 004°26'0 0.0
2018-Jun-15 22:27N 51°53' E 004°26'0 0.0
2018-Jun-15 22:00N 51°53' E 004°26'0 0.0
2018-Jun-15 21:27N 51°53' E 004°26'0 0.0
2018-Jun-15 21:00N 51°53' E 004°26'0 0.0
2018-Jun-15 20:30N 51°53' E 004°26'0 0.0
2018-Jun-15 19:57N 51°53' E 004°26'0 0.0
2018-Jun-15 19:30N 51°53' E 004°26'0 0.0
2018-Jun-15 19:00N 51°53' E 004°26'0 0.0
2018-Jun-15 18:30N 51°53' E 004°26'0 0.0
2018-Jun-15 18:00N 51°53' E 004°26'0 0.0
2018-Jun-15 17:30N 51°53' E 004°26'0 0.0
2018-Jun-15 17:00N 51°53' E 004°26'0 0.0
2018-Jun-15 16:30N 51°53' E 004°26'0 0.0
2018-Jun-15 16:00N 51°53' E 004°26'0 0.0
2018-Jun-15 15:30N 51°53' E 004°26'0 0.0
2018-Jun-15 15:00N 51°53' E 004°26'0 0.0
2018-Jun-15 14:30N 51°53' E 004°26'0 0.0
2018-Jun-15 13:57N 51°53' E 004°26'0 0.1
2018-Jun-15 13:30N 51°53' E 004°26'1 2.5
2018-Jun-15 13:00N 51°54' E 004°25'4 7.2
2018-Jun-15 12:30N 51°54' E 004°19'4 7.9
2018-Jun-15 12:00N 51°55' E 004°14'4 7.9
2018-Jun-15 11:30N 51°58' E 004°08'3 5.3
2018-Jun-15 11:01N 51°59' E 004°05'5 9.4
2018-Jun-15 10:30N 52°00' E 003°57'5 9.3
2018-Jun-15 10:00N 52°00' E 003°50'4 8.0
2018-Jun-15 09:30N 51°60' E 003°43'4 7.9
2018-Jun-15 09:00N 51°58' E 003°38'3 6.2
2018-Jun-15 08:30N 51°57' E 003°33'3 6.3
2018-Jun-15 08:00N 51°57' E 003°28'2 5.0
2018-Jun-15 07:31N 51°56' E 003°24'5 9.2
2018-Jun-15 07:00N 51°55' E 003°17'711.4
2018-Jun-15 06:25N 51°53' E 003°06'511.6
2018-Jun-15 06:00N 51°52' E 002°59'712.0
2018-Jun-15 05:28N 51°50' E 002°48'612.1
2018-Jun-15 05:00N 51°48' E 002°40'713.0
2018-Jun-15 04:30N 51°43' E 002°33'613.2
2018-Jun-15 04:00N 51°38' E 002°26'713.5
2018-Jun-15 03:30N 51°33' E 002°19'713.6
2018-Jun-15 03:00N 51°27' E 002°13'713.5
2018-Jun-15 02:30N 51°21' E 002°10'714.0
2018-Jun-15 02:00N 51°15' E 002°04'714.6
2018-Jun-15 01:30N 51°11' E 001°54'815.1
2018-Jun-15 01:00N 51°06' E 001°44'815.4
2018-Jun-15 00:30N 51°01' E 001°36'815.5
2018-Jun-15 00:00N 50°55' E 001°28'715.0
2018-Jun-14 23:30N 50°48' E 001°23'815.1
2018-Jun-14 23:00N 50°41' E 001°19'815.4
2018-Jun-14 22:31N 50°36' E 001°10'815.3
2018-Jun-14 22:01N 50°31' E 001°01'815.6
2018-Jun-14 21:30N 50°29' E 000°49'816.2
2018-Jun-14 21:01N 50°26' E 000°37'816.5
2018-Jun-14 20:30N 50°24' E 000°25'816.5
2018-Jun-14 20:00N 50°22' E 000°12'816.0
2018-Jun-14 19:31N 50°19' E 000°00'815.5
2018-Jun-14 19:00N 50°17' W 000°11'815.3
2018-Jun-14 18:30N 50°16' W 000°23'714.8
2018-Jun-14 18:00N 50°14' W 000°34'714.1
2018-Jun-14 17:30N 50°12' W 000°45'713.3
2018-Jun-14 17:00N 50°10' W 000°55'612.5
2018-Jun-14 16:30N 50°09' W 001°04'711.6
2018-Jun-14 15:56N 50°07' W 001°14'511.0
2018-Jun-14 15:30N 50°05' W 001°21'610.4
2018-Jun-14 14:55N 50°04' W 001°30'410.0
2018-Jun-14 14:30N 50°03' W 001°37'5 9.5
2018-Jun-14 14:00N 50°02' W 001°44'5 9.5
2018-Jun-14 13:30N 50°01' W 001°51'510.1
2018-Jun-14 13:01N 49°59' W 001°58'510.6
2018-Jun-14 12:30N 49°57' W 002°06'611.5
2018-Jun-14 12:00N 49°56' W 002°15'612.6
2018-Jun-14 11:30N 49°54' W 002°25'2013.7
2018-Jun-14 10:00N 49°49' W 002°55'714.6
2018-Jun-14 09:30N 49°46' W 003°06'814.6
2018-Jun-14 08:56N 49°42' W 003°17'5415.4
2018-Jun-14 05:25N 49°15' W 004°29'716.0
2018-Jun-14 05:00N 49°11' W 004°38'2215.9
2018-Jun-14 03:38N 49°00' W 005°06'415.9
2018-Jun-14 03:23N 48°58' W 005°11'615.9
2018-Jun-14 02:59N 48°55' W 005°20'815.7
2018-Jun-14 02:30N 48°51' W 005°30'815.4
2018-Jun-14 02:00N 48°46' W 005°39'815.2
2018-Jun-14 01:29N 48°39' W 005°45'  
Track history (hours):
 
Tides and Currents Weather Stations Pressure Air Temp Water Temp Dewpoint Dewpoint Depression Visibility Wind Speed Wind Dir Waves Ship Positions

Sadah Silver

Last reported at 2018-Jun-23 21:00 UTC. Time now 2018-Jun-23 21:24 UTC.
Position N 53°31' W 003°14'.

Length 183 m; draft 7.9 m.

Type: Ship (hazmat cat B). MMSI: 538006506.

Date/timePositionNaut miles runAvg speedWind from/ knotsBaromVisibWave heightAir tempDewpointWater temp
2018-Jun-23 21:00N 53°31' W 003°14'510.3
2018-Jun-23 20:31N 53°30' W 003°06'5 9.5
2018-Jun-23 20:00N 53°26' W 003°01'0 0.4
2018-Jun-23 19:30N 53°26' W 003°01'0 0.2
2018-Jun-23 19:01N 53°27' W 003°01'0 0.6
2018-Jun-23 18:30N 53°26' W 003°00'0 0.3
2018-Jun-23 18:00N 53°26' W 003°00'0 0.2
2018-Jun-23 17:20N 53°26' W 002°60'0 0.0
2018-Jun-23 16:56N 53°26' W 002°60'0 0.0
2018-Jun-23 16:26N 53°26' W 002°60'0 0.0
2018-Jun-23 15:56N 53°26' W 002°60'0 0.0
2018-Jun-23 15:26N 53°26' W 002°60'0 0.0
2018-Jun-23 14:59N 53°26' W 002°60'0 0.0
2018-Jun-23 14:26N 53°26' W 002°60'0 0.0
2018-Jun-23 13:50N 53°26' W 002°60'0 0.0
2018-Jun-23 13:26N 53°26' W 002°60'0 0.0
2018-Jun-23 12:56N 53°26' W 002°60'0 0.0
2018-Jun-23 12:20N 53°26' W 002°60'0 0.0
2018-Jun-23 11:56N 53°26' W 002°60'0 0.0
2018-Jun-23 11:26N 53°26' W 002°60'0 0.0
2018-Jun-23 10:56N 53°26' W 002°60'0 0.0
2018-Jun-23 09:44N 53°26' W 002°60'0 0.0
2018-Jun-23 09:26N 53°26' W 002°60'0 0.0
2018-Jun-23 08:53N 53°26' W 002°60'0 0.0
2018-Jun-23 08:26N 53°26' W 002°60'0 0.0
2018-Jun-23 07:56N 53°26' W 002°60'0 0.0
2018-Jun-23 07:26N 53°26' W 002°60'0 0.0
2018-Jun-23 06:59N 53°26' W 002°60'0 0.0
2018-Jun-23 06:29N 53°26' W 002°60'0 0.0
2018-Jun-23 05:56N 53°26' W 002°60'0 0.0
2018-Jun-23 05:26N 53°26' W 003°00'0 0.0
2018-Jun-23 04:47N 53°26' W 002°60'0 0.0
2018-Jun-23 04:23N 53°26' W 002°60'0 0.0
2018-Jun-23 03:47N 53°26' W 002°60'0 0.0
2018-Jun-23 03:29N 53°26' W 003°00'0 0.0
2018-Jun-23 02:56N 53°26' W 002°60'0 0.0
2018-Jun-23 02:26N 53°26' W 002°60'0 0.0
2018-Jun-23 01:56N 53°26' W 002°60'0 0.0
2018-Jun-23 01:29N 53°26' W 003°00'0 0.0
2018-Jun-23 00:44N 53°26' W 002°60'0 0.0
2018-Jun-23 00:26N 53°26' W 002°60'0 0.0
2018-Jun-22 23:56N 53°26' W 002°60'0 0.0
2018-Jun-22 23:26N 53°26' W 002°60'0 0.0
2018-Jun-22 22:56N 53°26' W 002°60'0 0.0
2018-Jun-22 22:20N 53°26' W 002°60'0 0.0
2018-Jun-22 21:56N 53°26' W 002°60'0 0.0
2018-Jun-22 21:29N 53°26' W 002°60'0 0.0
2018-Jun-22 20:56N 53°26' W 002°60'0 0.0
2018-Jun-22 20:29N 53°26' W 002°60'0 0.0
2018-Jun-22 19:59N 53°26' W 002°60'0 0.0
2018-Jun-22 19:23N 53°26' W 002°60'0 0.0
2018-Jun-22 18:59N 53°26' W 002°60'0 0.0
2018-Jun-22 18:29N 53°26' W 002°60'0 0.0
2018-Jun-22 17:56N 53°26' W 002°60'0 0.0
2018-Jun-22 17:29N 53°26' W 002°60'0 0.0
2018-Jun-22 16:56N 53°26' W 002°60'0 0.0
2018-Jun-22 16:26N 53°26' W 002°60'0 0.0
2018-Jun-22 15:59N 53°26' W 002°60'0 0.0
2018-Jun-22 15:29N 53°26' W 002°60'0 0.0
2018-Jun-22 14:56N 53°26' W 002°60'0 0.0
2018-Jun-22 14:17N 53°26' W 002°60'0 0.0
2018-Jun-22 13:56N 53°26' W 002°60'0 0.0
2018-Jun-22 13:26N 53°26' W 002°60'0 0.0
2018-Jun-22 12:56N 53°26' W 002°60'0 0.0
2018-Jun-22 12:26N 53°26' W 002°60'0 0.0
2018-Jun-22 11:59N 53°26' W 002°60'0 0.0
2018-Jun-22 11:26N 53°26' W 002°60'0 0.0
2018-Jun-22 10:50N 53°26' W 002°60'0 0.0
2018-Jun-22 10:26N 53°26' W 002°60'0 0.0
2018-Jun-22 09:56N 53°26' W 002°60'0 0.0
2018-Jun-22 09:29N 53°26' W 002°60'0 0.0
2018-Jun-22 08:59N 53°26' W 002°60'0 0.0
2018-Jun-22 08:30N 53°26' W 002°60'0 0.0
2018-Jun-22 08:00N 53°26' W 002°60'0 0.0
2018-Jun-22 07:30N 53°26' W 002°60'0 0.0
2018-Jun-22 07:00N 53°26' W 002°60'0 0.0
2018-Jun-22 06:30N 53°26' W 003°00'0 0.6
2018-Jun-22 06:00N 53°26' W 003°00'0 0.3
2018-Jun-22 05:29N 53°26' W 003°01'0 0.0
2018-Jun-22 05:00N 53°26' W 003°01'0 0.8
2018-Jun-22 04:30N 53°26' W 003°01'3 6.9
2018-Jun-22 04:00N 53°29' W 003°05'4 8.8
2018-Jun-22 03:30N 53°32' W 003°10'612.1
2018-Jun-22 03:00N 53°31' W 003°21'3 7.0
2018-Jun-22 02:30N 53°31' W 003°27'3 6.2
2018-Jun-22 02:00N 53°31' W 003°32'4 7.4
2018-Jun-22 01:30N 53°31' W 003°38'4 7.9
2018-Jun-22 01:00N 53°31' W 003°45'5 9.9
2018-Jun-22 00:30N 53°33' W 003°52'612.1
2018-Jun-22 00:00N 53°39' W 003°57'612.0
2018-Jun-21 23:30N 53°44' W 004°01'76 7.6
2018-Jun-21 13:30N 52°42' W 005°16'18311.6
2018-Jun-20 21:45N 49°43' W 006°17'5812.4
2018-Jun-20 17:02N 49°52' W 004°48'013.6
2018-Jun-20 17:01N 49°52' W 004°47'1113.9
2018-Jun-20 16:13N 49°53' W 004°30'413.9
2018-Jun-20 15:57N 49°54' W 004°24'613.9
2018-Jun-20 15:30N 49°55' W 004°15'913.7
2018-Jun-20 14:52N 49°56' W 004°02'713.6
2018-Jun-20 14:21N 49°57' W 003°51'513.2
2018-Jun-20 14:00N 49°57' W 003°44'612.9
2018-Jun-20 13:30N 49°58' W 003°34'612.7
2018-Jun-20 13:00N 49°60' W 003°24'612.5
2018-Jun-20 12:30N 50°01' W 003°15'612.4
2018-Jun-20 12:00N 50°02' W 003°05'612.6
2018-Jun-20 11:30N 50°02' W 002°55'612.5
2018-Jun-20 11:00N 50°02' W 002°46'613.0
2018-Jun-20 10:30N 50°04' W 002°36'2014.1
2018-Jun-20 09:05N 50°10' W 002°06'315.1
2018-Jun-20 08:53N 50°11' W 002°02'715.7
2018-Jun-20 08:25N 50°12' W 001°51'716.0
2018-Jun-20 08:00N 50°14' W 001°40'816.2
2018-Jun-20 07:30N 50°16' W 001°28'816.3
2018-Jun-20 07:00N 50°18' W 001°16'1016.7
2018-Jun-20 06:25N 50°21' W 001°01'716.4
2018-Jun-20 06:00N 50°23' W 000°51'815.2
2018-Jun-20 05:30N 50°25' W 000°40'714.5
2018-Jun-20 05:00N 50°27' W 000°29'714.3
2018-Jun-20 04:30N 50°29' W 000°18'713.5
2018-Jun-20 04:01N 50°31' W 000°08'613.0
2018-Jun-20 03:30N 50°31' E 000°02'612.7
2018-Jun-20 03:00N 50°33' E 000°12'612.2
2018-Jun-20 02:31N 50°34' E 000°22'611.8
2018-Jun-20 02:00N 50°36' E 000°31'611.8
2018-Jun-20 01:31N 50°39' E 000°39'612.3
2018-Jun-20 01:01N 50°42' E 000°46'713.1
2018-Jun-20 00:31N 50°46' E 000°55'714.0
2018-Jun-20 00:00N 50°50' E 001°04'714.6
2018-Jun-19 23:30N 50°55' E 001°13'815.2
2018-Jun-19 23:00N 51°01' E 001°20'815.2
2018-Jun-19 22:30N 51°05' E 001°30'714.5
2018-Jun-19 22:00N 51°10' E 001°39'713.7
2018-Jun-19 21:30N 51°15' E 001°47'713.1
2018-Jun-19 21:00N 51°21' E 001°51'612.4
2018-Jun-19 20:30N 51°26' E 001°56'612.0
2018-Jun-19 20:00N 51°31' E 002°02'611.8
2018-Jun-19 19:30N 51°35' E 002°09'611.9
2018-Jun-19 19:00N 51°39' E 002°15'611.8
2018-Jun-19 18:30N 51°44' E 002°22'611.7
2018-Jun-19 17:59N 51°48' E 002°28'611.9
2018-Jun-19 17:30N 51°53' E 002°35'612.2
2018-Jun-19 17:00N 51°57' E 002°41'2012.8
2018-Jun-19 15:28N 52°03' E 003°12'714.1
2018-Jun-19 15:00N 52°03' E 003°22'714.2
2018-Jun-19 14:31N 52°03' E 003°34'714.0
2018-Jun-19 14:00N 52°03' E 003°45'612.4
2018-Jun-19 13:30N 52°03' E 003°55'5 9.5
2018-Jun-19 13:00N 52°00' E 004°02'611.6
2018-Jun-19 12:30N 51°57' E 004°10'611.3
2018-Jun-19 12:00N 51°54' E 004°17'1 1.9
2018-Jun-19 11:30N 51°53' E 004°17'0 0.1
2018-Jun-19 08:50N 51°53' E 004°17'0 0.0
2018-Jun-19 08:29N 51°53' E 004°17'0 0.0
2018-Jun-19 07:02N 51°53' E 004°17'0 0.0
2018-Jun-19 05:56N 51°53' E 004°17'0 0.0
2018-Jun-19 05:08N 51°53' E 004°17'0 0.0
2018-Jun-19 04:50N 51°53' E 004°17'0 0.0
2018-Jun-19 03:50N 51°53' E 004°17'0 0.0
2018-Jun-19 03:14N 51°53' E 004°17'0 0.0
2018-Jun-19 02:56N 51°53' E 004°17'0 0.0
2018-Jun-19 01:50N 51°53' E 004°17'0 0.0
2018-Jun-19 00:56N 51°53' E 004°17'0 0.0
2018-Jun-18 21:50N 51°53' E 004°17'0 0.0
2018-Jun-18 09:32N 51°53' E 004°17'0 0.0
2018-Jun-18 08:29N 51°53' E 004°17'0 0.0
2018-Jun-18 07:50N 51°53' E 004°17'0 0.0
2018-Jun-18 07:20N 51°53' E 004°17'0 0.0
2018-Jun-18 06:53N 51°53' E 004°17'0 0.0
2018-Jun-18 06:14N 51°53' E 004°17'0 0.0
2018-Jun-18 05:56N 51°53' E 004°17'0 0.0
2018-Jun-18 05:29N 51°53' E 004°17'0 0.0
2018-Jun-18 04:53N 51°53' E 004°17'0 0.0
2018-Jun-18 04:23N 51°53' E 004°17'0 0.0
2018-Jun-18 03:53N 51°53' E 004°17'0 0.0
2018-Jun-18 03:14N 51°53' E 004°17'0 0.0
2018-Jun-18 02:50N 51°53' E 004°17'0 0.0
2018-Jun-18 02:26N 51°53' E 004°17'0 0.0
2018-Jun-18 01:14N 51°53' E 004°17'0 0.0
2018-Jun-18 00:38N 51°53' E 004°17'0 0.0
2018-Jun-18 00:29N 51°53' E 004°17'0 0.0
2018-Jun-17 23:41N 51°53' E 004°17'0 0.0
2018-Jun-17 23:29N 51°53' E 004°17'0 0.0
2018-Jun-17 22:59N 51°53' E 004°17'0 0.0
2018-Jun-17 22:29N 51°53' E 004°17'0 0.0
2018-Jun-17 19:38N 51°53' E 004°17'0 0.0
2018-Jun-17 16:11N 51°53' E 004°17'0 0.0
2018-Jun-17 15:41N 51°53' E 004°17'0 0.0
2018-Jun-17 14:05N 51°53' E 004°17'0 0.0
2018-Jun-17 13:41N 51°53' E 004°17'0 0.0
2018-Jun-17 07:56N 51°53' E 004°17'0 0.0
2018-Jun-17 07:26N 51°53' E 004°17'0 0.0
2018-Jun-17 06:59N 51°53' E 004°17'0 0.0
2018-Jun-17 06:29N 51°53' E 004°17'0 0.0
2018-Jun-17 05:47N 51°53' E 004°17'0 0.0
2018-Jun-17 04:56N 51°53' E 004°17'0 0.0
2018-Jun-17 04:05N 51°53' E 004°17'0 0.0
2018-Jun-17 03:53N 51°53' E 004°17'0 0.0
2018-Jun-17 03:29N 51°53' E 004°17'0 0.0
2018-Jun-17 02:59N 51°53' E 004°17'0 0.0
2018-Jun-17 02:26N 51°53' E 004°17'0 0.0
2018-Jun-17 01:53N 51°53' E 004°17'0 0.0
2018-Jun-17 01:14N 51°53' E 004°17'0 0.0
2018-Jun-17 00:56N 51°53' E 004°17'0 0.0
2018-Jun-17 00:29N 51°53' E 004°17'0 0.0
2018-Jun-16 23:56N 51°53' E 004°17'0 0.0
2018-Jun-16 23:23N 51°53' E 004°17'0 0.0
2018-Jun-16 22:32N 51°53' E 004°17'0 0.0
2018-Jun-16 22:26N 51°53' E 004°17'0 0.0
2018-Jun-16 21:54N 51°53' E 004°17'1 1.7
2018-Jun-16 21:30N 51°53' E 004°18'3 5.2
2018-Jun-16 21:00N 51°54' E 004°22'3 5.5
2018-Jun-16 20:30N 51°54' E 004°26'0 0.9
2018-Jun-16 20:00N 51°53' E 004°26'0 0.0
2018-Jun-16 19:30N 51°53' E 004°26'0 0.0
2018-Jun-16 18:54N 51°53' E 004°26'0 0.0
2018-Jun-16 18:27N 51°53' E 004°26'0 0.0
2018-Jun-16 18:00N 51°53' E 004°26'0 0.0
2018-Jun-16 17:30N 51°53' E 004°26'0 0.0
2018-Jun-16 16:57N 51°53' E 004°26'0 0.0
2018-Jun-16 16:30N 51°53' E 004°26'0 0.0
2018-Jun-16 16:00N 51°53' E 004°26'0 0.0
2018-Jun-16 15:27N 51°53' E 004°26'0 0.0
2018-Jun-16 14:57N 51°53' E 004°26'0 0.0
2018-Jun-16 14:30N 51°53' E 004°26'0 0.0
2018-Jun-16 14:00N 51°53' E 004°26'0 0.0
2018-Jun-16 13:30N 51°53' E 004°26'0 0.0
2018-Jun-16 13:00N 51°53' E 004°26'0 0.0
2018-Jun-16 12:30N 51°53' E 004°26'0 0.0
2018-Jun-16 12:00N 51°53' E 004°26'0 0.0
2018-Jun-16 11:30N 51°53' E 004°26'0 0.0
2018-Jun-16 10:57N 51°53' E 004°26'0 0.0
2018-Jun-16 10:30N 51°53' E 004°26'0 0.0
2018-Jun-16 10:00N 51°53' E 004°26'0 0.0
2018-Jun-16 09:30N 51°53' E 004°26'0 0.0
2018-Jun-16 09:00N 51°53' E 004°26'0 0.0
2018-Jun-16 08:30N 51°53' E 004°26'0 0.0
2018-Jun-16 08:00N 51°53' E 004°26'0 0.0
2018-Jun-16 07:30N 51°53' E 004°26'0 0.0
2018-Jun-16 07:00N 51°53' E 004°26'0 0.0
2018-Jun-16 06:27N 51°53' E 004°26'0 0.0
2018-Jun-16 06:00N 51°53' E 004°26'0 0.0
2018-Jun-16 05:27N 51°53' E 004°26'0 0.0
2018-Jun-16 05:00N 51°53' E 004°26'0 0.0
2018-Jun-16 04:30N 51°53' E 004°26'0 0.0
2018-Jun-16 03:57N 51°53' E 004°26'0 0.0
2018-Jun-16 03:30N 51°53' E 004°26'0 0.0
2018-Jun-16 03:00N 51°53' E 004°26'0 0.0
2018-Jun-16 02:27N 51°53' E 004°26'0 0.0
2018-Jun-16 02:00N 51°53' E 004°26'0 0.0
2018-Jun-16 01:30N 51°53' E 004°26'0 0.0
2018-Jun-16 01:00N 51°53' E 004°26'0 0.0
2018-Jun-16 00:30N 51°53' E 004°26'0 0.0
2018-Jun-16 00:00N 51°53' E 004°26'0 0.0
2018-Jun-15 23:30N 51°53' E 004°26'0 0.0
2018-Jun-15 22:57N 51°53' E 004°26'0 0.0
2018-Jun-15 22:27N 51°53' E 004°26'0 0.0
2018-Jun-15 22:00N 51°53' E 004°26'0 0.0
2018-Jun-15 21:27N 51°53' E 004°26'0 0.0
2018-Jun-15 21:00N 51°53' E 004°26'0 0.0
2018-Jun-15 20:30N 51°53' E 004°26'0 0.0
2018-Jun-15 19:57N 51°53' E 004°26'0 0.0
2018-Jun-15 19:30N 51°53' E 004°26'0 0.0
2018-Jun-15 19:00N 51°53' E 004°26'0 0.0
2018-Jun-15 18:30N 51°53' E 004°26'0 0.0
2018-Jun-15 18:00N 51°53' E 004°26'0 0.0
2018-Jun-15 17:30N 51°53' E 004°26'0 0.0
2018-Jun-15 17:00N 51°53' E 004°26'0 0.0
2018-Jun-15 16:30N 51°53' E 004°26'0 0.0
2018-Jun-15 16:00N 51°53' E 004°26'0 0.0
2018-Jun-15 15:30N 51°53' E 004°26'0 0.0
2018-Jun-15 15:00N 51°53' E 004°26'0 0.0
2018-Jun-15 14:30N 51°53' E 004°26'0 0.0
2018-Jun-15 13:57N 51°53' E 004°26'0 0.1
2018-Jun-15 13:30N 51°53' E 004°26'1 2.5
2018-Jun-15 13:00N 51°54' E 004°25'4 7.2
2018-Jun-15 12:30N 51°54' E 004°19'4 7.9
2018-Jun-15 12:00N 51°55' E 004°14'4 7.9
2018-Jun-15 11:30N 51°58' E 004°08'3 5.3
2018-Jun-15 11:01N 51°59' E 004°05'5 9.4
2018-Jun-15 10:30N 52°00' E 003°57'5 9.3
2018-Jun-15 10:00N 52°00' E 003°50'4 8.0
2018-Jun-15 09:30N 51°60' E 003°43'4 7.9
2018-Jun-15 09:00N 51°58' E 003°38'3 6.2
2018-Jun-15 08:30N 51°57' E 003°33'3 6.3
2018-Jun-15 08:00N 51°57' E 003°28'2 5.0
2018-Jun-15 07:31N 51°56' E 003°24'5 9.2
2018-Jun-15 07:00N 51°55' E 003°17'711.4
2018-Jun-15 06:25N 51°53' E 003°06'511.6
2018-Jun-15 06:00N 51°52' E 002°59'712.0
2018-Jun-15 05:28N 51°50' E 002°48'612.1
2018-Jun-15 05:00N 51°48' E 002°40'713.0
2018-Jun-15 04:30N 51°43' E 002°33'613.2
2018-Jun-15 04:00N 51°38' E 002°26'713.5
2018-Jun-15 03:30N 51°33' E 002°19'713.6
2018-Jun-15 03:00N 51°27' E 002°13'713.5
2018-Jun-15 02:30N 51°21' E 002°10'714.0
2018-Jun-15 02:00N 51°15' E 002°04'714.6
2018-Jun-15 01:30N 51°11' E 001°54'815.1
2018-Jun-15 01:00N 51°06' E 001°44'815.4
2018-Jun-15 00:30N 51°01' E 001°36'815.5
2018-Jun-15 00:00N 50°55' E 001°28'715.0
2018-Jun-14 23:30N 50°48' E 001°23'815.1
2018-Jun-14 23:00N 50°41' E 001°19'815.4
2018-Jun-14 22:31N 50°36' E 001°10'815.3
2018-Jun-14 22:01N 50°31' E 001°01'815.6
2018-Jun-14 21:30N 50°29' E 000°49'816.2
2018-Jun-14 21:01N 50°26' E 000°37'816.5
2018-Jun-14 20:30N 50°24' E 000°25'816.5
2018-Jun-14 20:00N 50°22' E 000°12'816.0
2018-Jun-14 19:31N 50°19' E 000°00'815.5
2018-Jun-14 19:00N 50°17' W 000°11'815.3
2018-Jun-14 18:30N 50°16' W 000°23'714.8
2018-Jun-14 18:00N 50°14' W 000°34'714.1
2018-Jun-14 17:30N 50°12' W 000°45'713.3
2018-Jun-14 17:00N 50°10' W 000°55'612.5
2018-Jun-14 16:30N 50°09' W 001°04'711.6
2018-Jun-14 15:56N 50°07' W 001°14'511.0
2018-Jun-14 15:30N 50°05' W 001°21'610.4
2018-Jun-14 14:55N 50°04' W 001°30'410.0
2018-Jun-14 14:30N 50°03' W 001°37'5 9.5
2018-Jun-14 14:00N 50°02' W 001°44'5 9.5
2018-Jun-14 13:30N 50°01' W 001°51'510.1
2018-Jun-14 13:01N 49°59' W 001°58'510.6
2018-Jun-14 12:30N 49°57' W 002°06'611.5
2018-Jun-14 12:00N 49°56' W 002°15'612.6
2018-Jun-14 11:30N 49°54' W 002°25'2013.7
2018-Jun-14 10:00N 49°49' W 002°55'714.6
2018-Jun-14 09:30N 49°46' W 003°06'814.6
2018-Jun-14 08:56N 49°42' W 003°17'5415.4
2018-Jun-14 05:25N 49°15' W 004°29'716.0
2018-Jun-14 05:00N 49°11' W 004°38'2215.9
2018-Jun-14 03:38N 49°00' W 005°06'415.9
2018-Jun-14 03:23N 48°58' W 005°11'615.9
2018-Jun-14 02:59N 48°55' W 005°20'815.7
2018-Jun-14 02:30N 48°51' W 005°30'815.4
2018-Jun-14 02:00N 48°46' W 005°39'815.2
2018-Jun-14 01:29N 48°39' W 005°45'  

Dump ship's entire track history